sensor_id;sensor_type;location;lat;lon;timestamp;P1;durP1;ratioP1;P2;durP2;ratioP2
41305;SDS011;27051;50.376;19.152;2023-07-31T00:01:34;6.10;;;3.90;;
41305;SDS011;27051;50.376;19.152;2023-07-31T00:04:01;6.80;;;4.40;;
41305;SDS011;27051;50.376;19.152;2023-07-31T00:06:30;6.70;;;4.80;;
41305;SDS011;27051;50.376;19.152;2023-07-31T00:08:56;9.20;;;4.50;;
41305;SDS011;27051;50.376;19.152;2023-07-31T00:11:26;7.40;;;4.80;;
41305;SDS011;27051;50.376;19.152;2023-07-31T00:14:01;10.00;;;5.00;;
41305;SDS011;27051;50.376;19.152;2023-07-31T00:16:31;8.50;;;5.20;;
41305;SDS011;27051;50.376;19.152;2023-07-31T00:18:58;6.70;;;4.90;;
41305;SDS011;27051;50.376;19.152;2023-07-31T00:21:35;12.70;;;4.60;;
41305;SDS011;27051;50.376;19.152;2023-07-31T00:24:01;8.00;;;5.00;;
41305;SDS011;27051;50.376;19.152;2023-07-31T00:26:28;8.60;;;4.60;;
41305;SDS011;27051;50.376;19.152;2023-07-31T00:28:54;10.70;;;4.40;;
41305;SDS011;27051;50.376;19.152;2023-07-31T00:31:24;10.20;;;5.40;;
41305;SDS011;27051;50.376;19.152;2023-07-31T00:33:51;7.50;;;4.70;;
41305;SDS011;27051;50.376;19.152;2023-07-31T00:36:17;9.90;;;5.10;;
41305;SDS011;27051;50.376;19.152;2023-07-31T00:38:47;8.40;;;4.50;;
41305;SDS011;27051;50.376;19.152;2023-07-31T00:41:13;7.70;;;5.10;;
41305;SDS011;27051;50.376;19.152;2023-07-31T00:43:40;9.10;;;4.80;;
41305;SDS011;27051;50.376;19.152;2023-07-31T00:46:06;9.80;;;4.90;;
41305;SDS011;27051;50.376;19.152;2023-07-31T00:48:34;9.80;;;5.10;;
41305;SDS011;27051;50.376;19.152;2023-07-31T00:51:14;10.10;;;5.20;;
41305;SDS011;27051;50.376;19.152;2023-07-31T00:53:49;8.80;;;5.30;;
41305;SDS011;27051;50.376;19.152;2023-07-31T00:56:38;8.00;;;4.70;;
41305;SDS011;27051;50.376;19.152;2023-07-31T01:01:51;6.80;;;5.00;;
41305;SDS011;27051;50.376;19.152;2023-07-31T01:04:18;8.10;;;4.90;;
41305;SDS011;27051;50.376;19.152;2023-07-31T01:06:54;7.50;;;4.50;;
41305;SDS011;27051;50.376;19.152;2023-07-31T01:09:49;7.80;;;4.70;;
41305;SDS011;27051;50.376;19.152;2023-07-31T01:12:21;6.80;;;3.90;;
41305;SDS011;27051;50.376;19.152;2023-07-31T01:15:05;5.50;;;3.90;;
41305;SDS011;27051;50.376;19.152;2023-07-31T01:17:34;6.00;;;3.80;;
41305;SDS011;27051;50.376;19.152;2023-07-31T01:20:03;7.40;;;3.80;;
41305;SDS011;27051;50.376;19.152;2023-07-31T01:28:28;4.30;;;3.30;;
41305;SDS011;27051;50.376;19.152;2023-07-31T01:31:04;4.80;;;2.70;;
41305;SDS011;27051;50.376;19.152;2023-07-31T01:33:33;3.90;;;2.60;;
41305;SDS011;27051;50.376;19.152;2023-07-31T01:36:02;4.60;;;2.90;;
41305;SDS011;27051;50.376;19.152;2023-07-31T01:38:36;4.80;;;2.60;;
41305;SDS011;27051;50.376;19.152;2023-07-31T01:41:03;5.70;;;2.80;;
41305;SDS011;27051;50.376;19.152;2023-07-31T01:43:29;5.20;;;2.80;;
41305;SDS011;27051;50.376;19.152;2023-07-31T01:45:56;6.90;;;2.70;;
41305;SDS011;27051;50.376;19.152;2023-07-31T01:48:23;3.90;;;2.70;;
41305;SDS011;27051;50.376;19.152;2023-07-31T01:50:49;5.40;;;2.30;;
41305;SDS011;27051;50.376;19.152;2023-07-31T01:53:16;4.30;;;2.30;;
41305;SDS011;27051;50.376;19.152;2023-07-31T01:55:42;3.20;;;2.60;;
41305;SDS011;27051;50.376;19.152;2023-07-31T01:58:09;6.10;;;2.90;;
41305;SDS011;27051;50.376;19.152;2023-07-31T02:00:36;3.50;;;2.50;;
41305;SDS011;27051;50.376;19.152;2023-07-31T02:03:05;4.10;;;2.70;;
41305;SDS011;27051;50.376;19.152;2023-07-31T02:05:32;3.90;;;2.70;;
41305;SDS011;27051;50.376;19.152;2023-07-31T02:07:58;3.70;;;2.70;;
41305;SDS011;27051;50.376;19.152;2023-07-31T02:10:25;6.00;;;2.50;;
41305;SDS011;27051;50.376;19.152;2023-07-31T02:12:51;2.90;;;2.30;;
41305;SDS011;27051;50.376;19.152;2023-07-31T02:15:18;5.20;;;2.70;;
41305;SDS011;27051;50.376;19.152;2023-07-31T02:17:45;3.50;;;2.50;;
41305;SDS011;27051;50.376;19.152;2023-07-31T02:20:20;3.30;;;2.70;;
41305;SDS011;27051;50.376;19.152;2023-07-31T02:22:47;4.10;;;3.20;;
41305;SDS011;27051;50.376;19.152;2023-07-31T02:25:14;4.50;;;3.10;;
41305;SDS011;27051;50.376;19.152;2023-07-31T02:27:41;7.10;;;2.60;;
41305;SDS011;27051;50.376;19.152;2023-07-31T02:30:08;4.10;;;2.70;;
41305;SDS011;27051;50.376;19.152;2023-07-31T02:32:35;3.30;;;3.00;;
41305;SDS011;27051;50.376;19.152;2023-07-31T02:35:01;6.00;;;3.30;;
41305;SDS011;27051;50.376;19.152;2023-07-31T02:37:28;6.10;;;2.70;;
41305;SDS011;27051;50.376;19.152;2023-07-31T02:39:55;5.60;;;3.40;;
41305;SDS011;27051;50.376;19.152;2023-07-31T02:42:21;8.00;;;3.00;;
41305;SDS011;27051;50.376;19.152;2023-07-31T02:45:08;6.40;;;2.60;;
41305;SDS011;27051;50.376;19.152;2023-07-31T02:47:35;3.40;;;2.70;;
41305;SDS011;27051;50.376;19.152;2023-07-31T02:50:02;3.20;;;2.60;;
41305;SDS011;27051;50.376;19.152;2023-07-31T02:52:29;5.70;;;3.00;;
41305;SDS011;27051;50.376;19.152;2023-07-31T02:54:57;5.20;;;3.00;;
41305;SDS011;27051;50.376;19.152;2023-07-31T02:57:24;6.40;;;3.20;;
41305;SDS011;27051;50.376;19.152;2023-07-31T02:59:53;5.00;;;3.00;;
41305;SDS011;27051;50.376;19.152;2023-07-31T03:02:19;3.90;;;2.90;;
41305;SDS011;27051;50.376;19.152;2023-07-31T03:04:46;4.70;;;2.70;;
41305;SDS011;27051;50.376;19.152;2023-07-31T03:07:12;5.40;;;3.20;;
41305;SDS011;27051;50.376;19.152;2023-07-31T03:09:39;3.80;;;3.00;;
41305;SDS011;27051;50.376;19.152;2023-07-31T03:12:06;3.70;;;2.60;;
41305;SDS011;27051;50.376;19.152;2023-07-31T03:17:10;4.10;;;2.90;;
41305;SDS011;27051;50.376;19.152;2023-07-31T03:19:36;3.40;;;2.60;;
41305;SDS011;27051;50.376;19.152;2023-07-31T03:22:03;4.60;;;2.80;;
41305;SDS011;27051;50.376;19.152;2023-07-31T03:24:30;4.10;;;2.80;;
41305;SDS011;27051;50.376;19.152;2023-07-31T03:27:18;5.50;;;3.00;;
41305;SDS011;27051;50.376;19.152;2023-07-31T03:29:44;4.50;;;2.90;;
41305;SDS011;27051;50.376;19.152;2023-07-31T03:32:11;5.20;;;2.90;;
41305;SDS011;27051;50.376;19.152;2023-07-31T03:34:37;4.60;;;2.50;;
41305;SDS011;27051;50.376;19.152;2023-07-31T03:37:04;6.40;;;2.90;;
41305;SDS011;27051;50.376;19.152;2023-07-31T03:39:31;3.50;;;2.30;;
41305;SDS011;27051;50.376;19.152;2023-07-31T03:42:01;3.50;;;2.80;;
41305;SDS011;27051;50.376;19.152;2023-07-31T03:44:27;4.20;;;3.00;;
41305;SDS011;27051;50.376;19.152;2023-07-31T03:46:54;5.90;;;3.60;;
41305;SDS011;27051;50.376;19.152;2023-07-31T03:49:21;6.00;;;4.00;;
41305;SDS011;27051;50.376;19.152;2023-07-31T03:51:47;5.60;;;3.50;;
41305;SDS011;27051;50.376;19.152;2023-07-31T03:54:14;4.40;;;2.90;;
41305;SDS011;27051;50.376;19.152;2023-07-31T03:56:40;6.30;;;2.90;;
41305;SDS011;27051;50.376;19.152;2023-07-31T03:59:07;7.60;;;3.10;;
41305;SDS011;27051;50.376;19.152;2023-07-31T04:01:33;5.50;;;2.90;;
41305;SDS011;27051;50.376;19.152;2023-07-31T04:04:00;5.70;;;3.10;;
41305;SDS011;27051;50.376;19.152;2023-07-31T04:06:29;7.60;;;3.10;;
41305;SDS011;27051;50.376;19.152;2023-07-31T04:08:55;9.10;;;3.50;;
41305;SDS011;27051;50.376;19.152;2023-07-31T04:11:22;5.80;;;3.50;;
41305;SDS011;27051;50.376;19.152;2023-07-31T04:13:48;5.70;;;3.10;;
41305;SDS011;27051;50.376;19.152;2023-07-31T04:16:17;5.40;;;2.90;;
41305;SDS011;27051;50.376;19.152;2023-07-31T04:18:44;5.90;;;2.80;;
41305;SDS011;27051;50.376;19.152;2023-07-31T04:21:10;4.50;;;2.80;;
41305;SDS011;27051;50.376;19.152;2023-07-31T04:23:37;9.60;;;2.90;;
41305;SDS011;27051;50.376;19.152;2023-07-31T04:26:04;5.50;;;2.80;;
41305;SDS011;27051;50.376;19.152;2023-07-31T04:28:34;4.30;;;3.00;;
41305;SDS011;27051;50.376;19.152;2023-07-31T04:31:00;7.50;;;3.30;;
41305;SDS011;27051;50.376;19.152;2023-07-31T04:33:27;4.30;;;2.80;;
41305;SDS011;27051;50.376;19.152;2023-07-31T04:35:56;4.60;;;2.60;;
41305;SDS011;27051;50.376;19.152;2023-07-31T04:38:23;4.70;;;2.80;;
41305;SDS011;27051;50.376;19.152;2023-07-31T04:40:50;5.50;;;3.20;;
41305;SDS011;27051;50.376;19.152;2023-07-31T04:43:16;6.50;;;3.20;;
41305;SDS011;27051;50.376;19.152;2023-07-31T04:45:44;8.70;;;3.30;;
41305;SDS011;27051;50.376;19.152;2023-07-31T04:48:11;5.60;;;2.60;;
41305;SDS011;27051;50.376;19.152;2023-07-31T04:50:38;4.70;;;2.90;;
41305;SDS011;27051;50.376;19.152;2023-07-31T04:53:07;3.90;;;2.40;;
41305;SDS011;27051;50.376;19.152;2023-07-31T04:55:36;6.30;;;2.50;;
41305;SDS011;27051;50.376;19.152;2023-07-31T04:58:02;7.10;;;3.00;;
41305;SDS011;27051;50.376;19.152;2023-07-31T05:00:29;6.30;;;3.20;;
41305;SDS011;27051;50.376;19.152;2023-07-31T05:02:55;6.00;;;3.00;;
41305;SDS011;27051;50.376;19.152;2023-07-31T05:05:22;8.70;;;3.00;;
41305;SDS011;27051;50.376;19.152;2023-07-31T05:07:49;6.40;;;2.90;;
41305;SDS011;27051;50.376;19.152;2023-07-31T05:10:15;3.90;;;2.70;;
41305;SDS011;27051;50.376;19.152;2023-07-31T05:12:42;7.30;;;2.70;;
41305;SDS011;27051;50.376;19.152;2023-07-31T05:15:08;7.00;;;2.70;;
41305;SDS011;27051;50.376;19.152;2023-07-31T05:17:35;5.40;;;3.10;;
41305;SDS011;27051;50.376;19.152;2023-07-31T05:20:02;6.70;;;2.60;;
41305;SDS011;27051;50.376;19.152;2023-07-31T05:22:32;5.70;;;2.90;;
41305;SDS011;27051;50.376;19.152;2023-07-31T05:24:58;5.20;;;3.20;;
41305;SDS011;27051;50.376;19.152;2023-07-31T05:27:27;8.30;;;3.40;;
41305;SDS011;27051;50.376;19.152;2023-07-31T05:32:39;5.00;;;3.10;;
41305;SDS011;27051;50.376;19.152;2023-07-31T05:35:09;8.80;;;3.40;;
41305;SDS011;27051;50.376;19.152;2023-07-31T05:37:38;4.20;;;2.80;;
41305;SDS011;27051;50.376;19.152;2023-07-31T05:40:04;4.80;;;2.90;;
41305;SDS011;27051;50.376;19.152;2023-07-31T05:42:31;5.60;;;2.90;;
41305;SDS011;27051;50.376;19.152;2023-07-31T05:44:58;8.10;;;3.00;;
41305;SDS011;27051;50.376;19.152;2023-07-31T05:47:25;7.40;;;3.00;;
41305;SDS011;27051;50.376;19.152;2023-07-31T05:49:51;4.60;;;2.90;;
41305;SDS011;27051;50.376;19.152;2023-07-31T05:52:18;4.60;;;3.00;;
41305;SDS011;27051;50.376;19.152;2023-07-31T05:54:45;7.20;;;3.00;;
41305;SDS011;27051;50.376;19.152;2023-07-31T05:57:12;5.10;;;3.00;;
41305;SDS011;27051;50.376;19.152;2023-07-31T05:59:39;6.50;;;2.90;;
41305;SDS011;27051;50.376;19.152;2023-07-31T06:02:05;8.00;;;2.90;;
41305;SDS011;27051;50.376;19.152;2023-07-31T06:04:32;7.80;;;3.00;;
41305;SDS011;27051;50.376;19.152;2023-07-31T06:07:00;6.70;;;3.20;;
41305;SDS011;27051;50.376;19.152;2023-07-31T06:09:48;7.70;;;3.10;;
41305;SDS011;27051;50.376;19.152;2023-07-31T06:12:13;5.30;;;2.60;;
41305;SDS011;27051;50.376;19.152;2023-07-31T06:14:40;5.60;;;2.80;;
41305;SDS011;27051;50.376;19.152;2023-07-31T06:17:06;4.40;;;3.00;;
41305;SDS011;27051;50.376;19.152;2023-07-31T06:19:33;8.70;;;3.30;;
41305;SDS011;27051;50.376;19.152;2023-07-31T06:21:59;9.10;;;4.10;;
41305;SDS011;27051;50.376;19.152;2023-07-31T06:24:28;6.20;;;2.70;;
41305;SDS011;27051;50.376;19.152;2023-07-31T06:26:55;9.70;;;3.00;;
41305;SDS011;27051;50.376;19.152;2023-07-31T06:29:22;9.30;;;3.30;;
41305;SDS011;27051;50.376;19.152;2023-07-31T06:31:48;4.30;;;2.70;;
41305;SDS011;27051;50.376;19.152;2023-07-31T06:34:15;6.80;;;3.10;;
41305;SDS011;27051;50.376;19.152;2023-07-31T06:36:41;8.60;;;3.10;;
41305;SDS011;27051;50.376;19.152;2023-07-31T06:39:08;8.70;;;3.10;;
41305;SDS011;27051;50.376;19.152;2023-07-31T06:41:34;6.60;;;2.80;;
41305;SDS011;27051;50.376;19.152;2023-07-31T06:44:01;7.20;;;2.90;;
41305;SDS011;27051;50.376;19.152;2023-07-31T06:46:27;6.10;;;2.70;;
41305;SDS011;27051;50.376;19.152;2023-07-31T06:49:04;5.00;;;3.30;;
41305;SDS011;27051;50.376;19.152;2023-07-31T06:51:34;4.60;;;2.50;;
41305;SDS011;27051;50.376;19.152;2023-07-31T06:54:01;6.50;;;3.00;;
41305;SDS011;27051;50.376;19.152;2023-07-31T06:56:30;4.20;;;3.00;;
41305;SDS011;27051;50.376;19.152;2023-07-31T06:59:04;6.10;;;2.90;;
41305;SDS011;27051;50.376;19.152;2023-07-31T07:04:22;5.90;;;2.80;;
41305;SDS011;27051;50.376;19.152;2023-07-31T07:06:51;7.50;;;3.00;;
41305;SDS011;27051;50.376;19.152;2023-07-31T07:14:52;9.70;;;2.70;;
41305;SDS011;27051;50.376;19.152;2023-07-31T07:17:18;9.00;;;2.70;;
41305;SDS011;27051;50.376;19.152;2023-07-31T07:19:45;7.90;;;2.60;;
41305;SDS011;27051;50.376;19.152;2023-07-31T07:25:18;5.80;;;3.10;;
41305;SDS011;27051;50.376;19.152;2023-07-31T07:27:45;6.80;;;2.80;;
41305;SDS011;27051;50.376;19.152;2023-07-31T07:30:33;6.90;;;2.70;;
41305;SDS011;27051;50.376;19.152;2023-07-31T07:32:58;8.60;;;2.90;;
41305;SDS011;27051;50.376;19.152;2023-07-31T07:35:24;5.80;;;2.50;;
41305;SDS011;27051;50.376;19.152;2023-07-31T07:40:40;7.90;;;2.60;;
41305;SDS011;27051;50.376;19.152;2023-07-31T07:43:07;8.00;;;2.70;;
41305;SDS011;27051;50.376;19.152;2023-07-31T07:45:37;8.10;;;2.70;;
41305;SDS011;27051;50.376;19.152;2023-07-31T07:48:14;4.10;;;2.20;;
41305;SDS011;27051;50.376;19.152;2023-07-31T07:50:52;4.90;;;2.90;;
41305;SDS011;27051;50.376;19.152;2023-07-31T07:53:19;8.30;;;2.50;;
41305;SDS011;27051;50.376;19.152;2023-07-31T07:55:46;5.10;;;2.50;;
41305;SDS011;27051;50.376;19.152;2023-07-31T07:58:15;7.30;;;3.00;;
41305;SDS011;27051;50.376;19.152;2023-07-31T08:00:42;6.80;;;2.70;;
41305;SDS011;27051;50.376;19.152;2023-07-31T08:03:33;8.00;;;2.50;;
41305;SDS011;27051;50.376;19.152;2023-07-31T08:06:00;5.70;;;2.50;;
41305;SDS011;27051;50.376;19.152;2023-07-31T08:08:28;4.20;;;2.50;;
41305;SDS011;27051;50.376;19.152;2023-07-31T08:13:57;7.00;;;2.30;;
41305;SDS011;27051;50.376;19.152;2023-07-31T08:16:33;8.50;;;2.80;;
41305;SDS011;27051;50.376;19.152;2023-07-31T08:19:00;7.00;;;2.60;;
41305;SDS011;27051;50.376;19.152;2023-07-31T08:21:29;5.20;;;2.50;;
41305;SDS011;27051;50.376;19.152;2023-07-31T08:24:27;8.50;;;2.80;;
41305;SDS011;27051;50.376;19.152;2023-07-31T08:26:52;7.60;;;2.70;;
41305;SDS011;27051;50.376;19.152;2023-07-31T08:29:19;5.70;;;2.80;;
41305;SDS011;27051;50.376;19.152;2023-07-31T08:31:48;8.60;;;2.60;;
41305;SDS011;27051;50.376;19.152;2023-07-31T08:37:14;8.20;;;3.10;;
41305;SDS011;27051;50.376;19.152;2023-07-31T08:39:40;5.10;;;2.50;;
41305;SDS011;27051;50.376;19.152;2023-07-31T08:42:17;7.60;;;2.90;;
41305;SDS011;27051;50.376;19.152;2023-07-31T08:44:44;3.40;;;2.20;;
41305;SDS011;27051;50.376;19.152;2023-07-31T08:47:12;8.90;;;3.10;;
41305;SDS011;27051;50.376;19.152;2023-07-31T08:49:39;6.90;;;2.80;;
41305;SDS011;27051;50.376;19.152;2023-07-31T08:52:08;6.50;;;3.30;;
41305;SDS011;27051;50.376;19.152;2023-07-31T08:57:21;6.20;;;2.80;;
41305;SDS011;27051;50.376;19.152;2023-07-31T08:59:48;5.30;;;3.10;;
41305;SDS011;27051;50.376;19.152;2023-07-31T09:02:15;6.40;;;2.60;;
41305;SDS011;27051;50.376;19.152;2023-07-31T09:04:44;10.30;;;2.90;;
41305;SDS011;27051;50.376;19.152;2023-07-31T09:07:20;8.70;;;3.10;;
41305;SDS011;27051;50.376;19.152;2023-07-31T09:09:47;6.80;;;2.60;;
41305;SDS011;27051;50.376;19.152;2023-07-31T09:12:17;6.80;;;3.10;;
41305;SDS011;27051;50.376;19.152;2023-07-31T09:14:44;6.70;;;3.30;;
41305;SDS011;27051;50.376;19.152;2023-07-31T09:17:14;11.10;;;3.30;;
41305;SDS011;27051;50.376;19.152;2023-07-31T09:19:41;4.40;;;3.00;;
41305;SDS011;27051;50.376;19.152;2023-07-31T09:22:07;9.50;;;2.80;;
41305;SDS011;27051;50.376;19.152;2023-07-31T09:24:34;9.10;;;2.90;;
41305;SDS011;27051;50.376;19.152;2023-07-31T09:27:01;8.10;;;2.60;;
41305;SDS011;27051;50.376;19.152;2023-07-31T09:29:28;4.90;;;2.20;;
41305;SDS011;27051;50.376;19.152;2023-07-31T09:31:55;5.10;;;2.40;;
41305;SDS011;27051;50.376;19.152;2023-07-31T09:34:29;4.70;;;2.50;;
41305;SDS011;27051;50.376;19.152;2023-07-31T09:37:02;7.00;;;2.30;;
41305;SDS011;27051;50.376;19.152;2023-07-31T09:39:34;5.20;;;2.40;;
41305;SDS011;27051;50.376;19.152;2023-07-31T09:42:12;4.60;;;2.20;;
41305;SDS011;27051;50.376;19.152;2023-07-31T09:44:41;5.40;;;2.50;;
41305;SDS011;27051;50.376;19.152;2023-07-31T09:47:29;5.30;;;2.40;;
41305;SDS011;27051;50.376;19.152;2023-07-31T09:50:07;5.90;;;2.20;;
41305;SDS011;27051;50.376;19.152;2023-07-31T09:52:34;6.00;;;2.60;;
41305;SDS011;27051;50.376;19.152;2023-07-31T09:55:00;6.10;;;2.40;;
41305;SDS011;27051;50.376;19.152;2023-07-31T09:57:29;6.60;;;2.60;;
41305;SDS011;27051;50.376;19.152;2023-07-31T09:59:57;5.50;;;2.20;;
41305;SDS011;27051;50.376;19.152;2023-07-31T10:02:25;7.00;;;2.60;;
41305;SDS011;27051;50.376;19.152;2023-07-31T10:04:54;6.90;;;2.40;;
41305;SDS011;27051;50.376;19.152;2023-07-31T10:07:23;7.10;;;2.20;;
41305;SDS011;27051;50.376;19.152;2023-07-31T10:09:54;6.60;;;2.50;;
41305;SDS011;27051;50.376;19.152;2023-07-31T10:12:24;4.50;;;2.40;;
41305;SDS011;27051;50.376;19.152;2023-07-31T10:14:53;5.20;;;2.90;;
41305;SDS011;27051;50.376;19.152;2023-07-31T10:17:24;4.60;;;2.10;;
41305;SDS011;27051;50.376;19.152;2023-07-31T10:19:51;6.00;;;3.00;;
41305;SDS011;27051;50.376;19.152;2023-07-31T10:22:19;7.50;;;2.40;;
41305;SDS011;27051;50.376;19.152;2023-07-31T10:24:47;5.40;;;2.50;;
41305;SDS011;27051;50.376;19.152;2023-07-31T10:27:15;8.30;;;2.60;;
41305;SDS011;27051;50.376;19.152;2023-07-31T10:29:43;6.50;;;2.60;;
41305;SDS011;27051;50.376;19.152;2023-07-31T10:32:11;8.00;;;2.50;;
41305;SDS011;27051;50.376;19.152;2023-07-31T10:34:39;5.90;;;2.50;;
41305;SDS011;27051;50.376;19.152;2023-07-31T10:37:22;6.40;;;2.90;;
41305;SDS011;27051;50.376;19.152;2023-07-31T10:40:03;7.70;;;2.50;;
41305;SDS011;27051;50.376;19.152;2023-07-31T10:42:36;8.10;;;2.40;;
41305;SDS011;27051;50.376;19.152;2023-07-31T10:45:05;9.70;;;2.70;;
41305;SDS011;27051;50.376;19.152;2023-07-31T10:47:37;3.30;;;2.30;;
41305;SDS011;27051;50.376;19.152;2023-07-31T10:50:11;3.50;;;2.20;;
41305;SDS011;27051;50.376;19.152;2023-07-31T10:52:39;8.10;;;2.20;;
41305;SDS011;27051;50.376;19.152;2023-07-31T10:55:15;3.80;;;2.00;;
41305;SDS011;27051;50.376;19.152;2023-07-31T10:57:49;5.30;;;2.20;;
41305;SDS011;27051;50.376;19.152;2023-07-31T11:00:20;4.50;;;2.80;;
41305;SDS011;27051;50.376;19.152;2023-07-31T11:03:01;4.80;;;2.00;;
41305;SDS011;27051;50.376;19.152;2023-07-31T11:08:24;6.80;;;2.70;;
41305;SDS011;27051;50.376;19.152;2023-07-31T11:13:29;5.40;;;2.10;;
41305;SDS011;27051;50.376;19.152;2023-07-31T11:15:56;8.20;;;2.70;;
41305;SDS011;27051;50.376;19.152;2023-07-31T11:18:23;9.80;;;2.40;;
41305;SDS011;27051;50.376;19.152;2023-07-31T11:20:50;11.30;;;2.50;;
41305;SDS011;27051;50.376;19.152;2023-07-31T11:23:16;6.40;;;2.40;;
41305;SDS011;27051;50.376;19.152;2023-07-31T11:25:43;4.00;;;2.30;;
41305;SDS011;27051;50.376;19.152;2023-07-31T11:28:11;5.20;;;2.40;;
41305;SDS011;27051;50.376;19.152;2023-07-31T11:30:39;7.50;;;2.40;;
41305;SDS011;27051;50.376;19.152;2023-07-31T11:33:07;4.80;;;2.10;;
41305;SDS011;27051;50.376;19.152;2023-07-31T11:35:35;5.40;;;2.20;;
41305;SDS011;27051;50.376;19.152;2023-07-31T11:38:06;5.00;;;2.70;;
41305;SDS011;27051;50.376;19.152;2023-07-31T11:40:43;8.30;;;2.30;;
41305;SDS011;27051;50.376;19.152;2023-07-31T11:43:10;4.80;;;2.30;;
41305;SDS011;27051;50.376;19.152;2023-07-31T11:45:37;2.40;;;1.90;;
41305;SDS011;27051;50.376;19.152;2023-07-31T11:48:05;4.80;;;2.20;;
41305;SDS011;27051;50.376;19.152;2023-07-31T11:50:33;6.00;;;2.50;;
41305;SDS011;27051;50.376;19.152;2023-07-31T11:53:04;6.30;;;2.20;;
41305;SDS011;27051;50.376;19.152;2023-07-31T11:55:35;2.40;;;2.20;;
41305;SDS011;27051;50.376;19.152;2023-07-31T11:58:02;4.50;;;2.50;;
41305;SDS011;27051;50.376;19.152;2023-07-31T12:00:29;2.90;;;2.00;;
41305;SDS011;27051;50.376;19.152;2023-07-31T12:02:55;4.20;;;2.10;;
41305;SDS011;27051;50.376;19.152;2023-07-31T12:05:22;2.50;;;2.00;;
41305;SDS011;27051;50.376;19.152;2023-07-31T12:07:49;4.20;;;1.80;;
41305;SDS011;27051;50.376;19.152;2023-07-31T12:10:31;5.90;;;2.00;;
41305;SDS011;27051;50.376;19.152;2023-07-31T12:12:59;6.30;;;2.20;;
41305;SDS011;27051;50.376;19.152;2023-07-31T12:15:38;4.30;;;2.20;;
41305;SDS011;27051;50.376;19.152;2023-07-31T12:20:43;2.80;;;1.90;;
41305;SDS011;27051;50.376;19.152;2023-07-31T12:23:17;5.80;;;2.60;;
41305;SDS011;27051;50.376;19.152;2023-07-31T12:25:46;4.10;;;2.40;;
41305;SDS011;27051;50.376;19.152;2023-07-31T12:28:22;6.10;;;3.30;;
41305;SDS011;27051;50.376;19.152;2023-07-31T12:30:48;4.90;;;2.00;;
41305;SDS011;27051;50.376;19.152;2023-07-31T12:33:15;2.70;;;1.90;;
41305;SDS011;27051;50.376;19.152;2023-07-31T12:35:44;4.00;;;1.90;;
41305;SDS011;27051;50.376;19.152;2023-07-31T12:38:13;4.60;;;2.10;;
41305;SDS011;27051;50.376;19.152;2023-07-31T12:40:40;6.70;;;2.40;;
41305;SDS011;27051;50.376;19.152;2023-07-31T12:43:07;2.70;;;2.20;;
41305;SDS011;27051;50.376;19.152;2023-07-31T12:45:34;6.00;;;2.20;;
41305;SDS011;27051;50.376;19.152;2023-07-31T12:48:01;5.40;;;2.00;;
41305;SDS011;27051;50.376;19.152;2023-07-31T12:50:28;5.70;;;2.50;;
41305;SDS011;27051;50.376;19.152;2023-07-31T12:52:54;7.10;;;2.30;;
41305;SDS011;27051;50.376;19.152;2023-07-31T12:55:21;7.70;;;2.70;;
41305;SDS011;27051;50.376;19.152;2023-07-31T12:57:49;5.10;;;3.10;;
41305;SDS011;27051;50.376;19.152;2023-07-31T13:00:16;6.50;;;2.30;;
41305;SDS011;27051;50.376;19.152;2023-07-31T13:02:42;2.60;;;2.10;;
41305;SDS011;27051;50.376;19.152;2023-07-31T13:05:08;7.50;;;2.50;;
41305;SDS011;27051;50.376;19.152;2023-07-31T13:07:35;2.80;;;2.00;;
41305;SDS011;27051;50.376;19.152;2023-07-31T13:10:01;4.10;;;1.90;;
41305;SDS011;27051;50.376;19.152;2023-07-31T13:12:28;4.30;;;2.00;;
41305;SDS011;27051;50.376;19.152;2023-07-31T13:14:54;6.10;;;2.40;;
41305;SDS011;27051;50.376;19.152;2023-07-31T13:17:21;4.90;;;2.50;;
41305;SDS011;27051;50.376;19.152;2023-07-31T13:19:47;3.10;;;2.20;;
41305;SDS011;27051;50.376;19.152;2023-07-31T13:22:14;5.30;;;2.50;;
41305;SDS011;27051;50.376;19.152;2023-07-31T13:24:40;14.20;;;2.70;;
41305;SDS011;27051;50.376;19.152;2023-07-31T13:27:07;5.20;;;2.30;;
41305;SDS011;27051;50.376;19.152;2023-07-31T13:29:34;4.90;;;2.10;;
41305;SDS011;27051;50.376;19.152;2023-07-31T13:32:00;6.60;;;2.30;;
41305;SDS011;27051;50.376;19.152;2023-07-31T13:34:27;2.80;;;1.90;;
41305;SDS011;27051;50.376;19.152;2023-07-31T13:36:54;2.70;;;2.30;;
41305;SDS011;27051;50.376;19.152;2023-07-31T13:39:21;6.20;;;2.10;;
41305;SDS011;27051;50.376;19.152;2023-07-31T13:41:47;3.00;;;2.30;;
41305;SDS011;27051;50.376;19.152;2023-07-31T13:44:14;3.90;;;2.30;;
41305;SDS011;27051;50.376;19.152;2023-07-31T13:46:41;3.60;;;2.40;;
41305;SDS011;27051;50.376;19.152;2023-07-31T13:49:07;4.30;;;2.00;;
41305;SDS011;27051;50.376;19.152;2023-07-31T13:51:33;6.10;;;2.20;;
41305;SDS011;27051;50.376;19.152;2023-07-31T13:54:00;5.40;;;2.10;;
41305;SDS011;27051;50.376;19.152;2023-07-31T13:56:27;8.40;;;2.30;;
41305;SDS011;27051;50.376;19.152;2023-07-31T13:58:54;6.00;;;2.90;;
41305;SDS011;27051;50.376;19.152;2023-07-31T14:01:20;4.80;;;2.30;;
41305;SDS011;27051;50.376;19.152;2023-07-31T14:03:47;3.80;;;2.10;;
41305;SDS011;27051;50.376;19.152;2023-07-31T14:06:13;3.00;;;1.70;;
41305;SDS011;27051;50.376;19.152;2023-07-31T14:08:40;5.70;;;1.90;;
41305;SDS011;27051;50.376;19.152;2023-07-31T14:11:06;4.10;;;2.10;;
41305;SDS011;27051;50.376;19.152;2023-07-31T14:13:32;8.60;;;2.30;;
41305;SDS011;27051;50.376;19.152;2023-07-31T14:15:59;5.50;;;2.30;;
41305;SDS011;27051;50.376;19.152;2023-07-31T14:18:26;3.80;;;1.90;;
41305;SDS011;27051;50.376;19.152;2023-07-31T14:20:52;6.10;;;2.00;;
41305;SDS011;27051;50.376;19.152;2023-07-31T14:23:19;7.60;;;2.00;;
41305;SDS011;27051;50.376;19.152;2023-07-31T14:25:45;7.80;;;2.90;;
41305;SDS011;27051;50.376;19.152;2023-07-31T14:28:13;5.40;;;2.40;;
41305;SDS011;27051;50.376;19.152;2023-07-31T14:30:40;6.50;;;2.10;;
41305;SDS011;27051;50.376;19.152;2023-07-31T14:33:06;7.00;;;2.50;;
41305;SDS011;27051;50.376;19.152;2023-07-31T14:35:33;5.40;;;2.60;;
41305;SDS011;27051;50.376;19.152;2023-07-31T14:38:01;9.10;;;4.20;;
41305;SDS011;27051;50.376;19.152;2023-07-31T14:40:27;6.10;;;3.20;;
41305;SDS011;27051;50.376;19.152;2023-07-31T14:42:54;6.80;;;2.80;;
41305;SDS011;27051;50.376;19.152;2023-07-31T14:45:20;7.40;;;2.70;;
41305;SDS011;27051;50.376;19.152;2023-07-31T14:47:49;4.50;;;2.30;;
41305;SDS011;27051;50.376;19.152;2023-07-31T14:50:16;4.70;;;2.00;;
41305;SDS011;27051;50.376;19.152;2023-07-31T14:52:46;4.70;;;2.70;;
41305;SDS011;27051;50.376;19.152;2023-07-31T14:55:12;6.50;;;2.50;;
41305;SDS011;27051;50.376;19.152;2023-07-31T14:57:39;6.50;;;2.60;;
41305;SDS011;27051;50.376;19.152;2023-07-31T15:00:06;5.80;;;2.50;;
41305;SDS011;27051;50.376;19.152;2023-07-31T15:02:42;10.30;;;2.80;;
41305;SDS011;27051;50.376;19.152;2023-07-31T15:05:09;17.00;;;3.60;;
41305;SDS011;27051;50.376;19.152;2023-07-31T15:07:36;10.40;;;3.60;;
41305;SDS011;27051;50.376;19.152;2023-07-31T15:10:02;5.10;;;2.70;;
41305;SDS011;27051;50.376;19.152;2023-07-31T15:12:29;5.00;;;3.10;;
41305;SDS011;27051;50.376;19.152;2023-07-31T15:14:56;9.00;;;2.90;;
41305;SDS011;27051;50.376;19.152;2023-07-31T15:17:23;7.90;;;4.10;;
41305;SDS011;27051;50.376;19.152;2023-07-31T15:19:49;10.50;;;3.40;;
41305;SDS011;27051;50.376;19.152;2023-07-31T15:22:19;9.40;;;3.70;;
41305;SDS011;27051;50.376;19.152;2023-07-31T15:24:48;13.60;;;3.40;;
41305;SDS011;27051;50.376;19.152;2023-07-31T15:27:15;7.90;;;2.60;;